Time;durP1;ratioP1;P1;durP2;ratioP2;P2;SDS_P1;SDS_P2;PMS_P1;PMS_P2;Temp;Humidity;BMP_temperature;BMP_pressure;BME280_temperature;BME280_humidity;BME280_pressure;Samples;Min_cycle;Max_cycle;Signal;HPM_P1;HPM_P2
2022/04/06 00:02:21;;;;;;;8.30;6.57;;;;;;;9.63;96.01;99474.88;6309354;22;20077;-91
2022/04/06 00:04:55;;;;;;;8.85;7.10;;;;;;;9.74;95.86;99491.00;6309578;22;20050;-92
2022/04/06 00:07:48;;;;;;;9.38;7.50;;;;;;;9.72;96.86;99497.31;6308725;22;20023;-91
2022/04/06 00:10:37;;;;;;;8.88;7.22;;;;;;;9.62;98.13;99488.19;6309858;22;20019;-95
2022/04/06 00:13:09;;;;;;;10.25;7.38;;;;;;;9.61;98.98;99494.41;6311425;22;20395;-93
2022/04/06 00:15:55;;;;;;;10.95;7.45;;;;;;;9.62;99.52;99514.63;6310999;22;20023;-93
2022/04/06 00:18:43;;;;;;;;;;;;;;;;;;;;;
2022/04/06 00:21:27;;;;;;;9.73;6.68;;;;;;;9.55;99.39;99489.50;6310709;22;20027;-94
2022/04/06 00:23:54;;;;;;;9.55;6.85;;;;;;;9.40;98.28;99446.31;6284077;22;20114;-92
2022/04/06 00:26:25;;;;;;;8.48;6.97;;;;;;;9.70;98.22;99499.19;6311940;22;20023;-94
2022/04/06 00:29:09;;;;;;;9.32;6.60;;;;;;;9.69;97.53;99481.63;6314955;22;20023;-94
2022/04/06 00:31:47;;;;;;;7.30;6.30;;;;;;;9.85;97.30;99508.88;6311155;22;20023;-93
2022/04/06 00:35:28;;;;;;;7.95;6.55;;;;;;;9.74;97.12;99485.72;6313916;22;20019;-93
2022/04/06 00:37:09;;;;;;;8.50;6.93;;;;;;;9.74;97.37;99490.16;6317108;22;20023;-93
2022/04/06 00:39:58;;;;;;;7.90;6.47;;;;;;;9.78;97.39;99487.22;6310599;22;20046;-93
2022/04/06 00:42:33;;;;;;;8.05;6.53;;;;;;;9.67;97.26;99472.94;6313523;22;20023;-94
2022/04/06 00:45:03;;;;;;;8.65;6.72;;;;;;;9.65;97.62;99465.09;6284125;22;20710;-93
2022/04/06 00:47:39;;;;;;;11.30;7.13;;;;;;;9.75;97.56;99476.84;6311072;22;20038;-93
2022/04/06 00:50:32;;;;;;;9.88;7.10;;;;;;;9.52;97.57;99431.53;6303393;22;20023;-94
2022/04/06 00:53:07;;;;;;;8.55;6.85;;;;;;;9.60;97.25;99437.25;6311153;22;20012;-93
2022/04/06 00:55:42;;;;;;;8.73;7.07;;;;;;;9.78;96.99;99467.84;6310166;22;20023;-93
2022/04/06 00:58:24;;;;;;;9.70;7.07;;;;;;;9.92;98.09;99497.00;6284571;22;20084;-93
2022/04/06 01:01:05;;;;;;;10.90;8.13;;;;;;;9.83;97.93;99479.88;6311946;22;20511;-95
2022/04/06 01:03:34;;;;;;;10.95;8.13;;;;;;;9.70;98.18;99451.59;6286917;22;20023;-92
2022/04/06 01:06:11;;;;;;;10.85;7.57;;;;;;;9.64;98.79;99441.38;6312217;22;20106;-94
2022/04/06 01:08:54;;;;;;;11.95;8.15;;;;;;;9.68;98.78;99442.91;6289279;22;20026;-93
2022/04/06 01:11:29;;;;;;;10.23;8.38;;;;;;;9.60;99.08;99424.03;6315047;22;20022;-91
2022/04/06 01:14:19;;;;;;;10.70;7.90;;;;;;;9.88;99.25;99471.69;6323657;22;20043;-91
2022/04/06 01:17:02;;;;;;;10.95;8.25;;;;;;;9.60;98.96;99431.94;6319884;22;20029;-90
2022/04/06 01:19:47;;;;;;;10.65;8.52;;;;;;;9.76;98.94;99445.94;6295929;22;20022;-91
2022/04/06 01:22:34;;;;;;;10.63;9.10;;;;;;;9.66;99.37;99429.78;6324876;22;20019;-91
2022/04/06 01:25:05;;;;;;;12.20;9.52;;;;;;;9.59;99.63;99430.25;6324546;22;20024;-92
2022/04/06 01:27:37;;;;;;;11.85;9.20;;;;;;;9.54;99.88;99425.22;6321636;22;20068;-93
2022/04/06 01:30:07;;;;;;;11.38;8.95;;;;;;;9.76;100.00;99475.88;6318126;22;20053;-94
2022/04/06 01:32:38;;;;;;;12.88;9.68;;;;;;;9.72;100.00;99457.66;6310692;22;20046;-92
2022/04/06 01:35:26;;;;;;;12.52;9.70;;;;;;;9.77;100.00;99466.16;6310066;22;20041;-91
2022/04/06 01:37:57;;;;;;;12.70;9.60;;;;;;;9.75;100.00;99450.41;6310875;22;20102;-91
2022/04/06 01:40:39;;;;;;;13.23;10.30;;;;;;;9.44;100.00;99393.16;6312783;22;20099;-92
2022/04/06 01:43:12;;;;;;;11.57;9.32;;;;;;;9.82;99.23;99446.44;6321582;22;20023;-91
2022/04/06 01:46:13;;;;;;;12.90;9.63;;;;;;;9.88;98.77;99434.66;6328670;22;20023;-90
2022/04/06 01:54:31;;;;;;;14.00;10.90;;;;;;;9.52;97.96;99382.16;6312195;22;20027;-94
2022/04/06 01:56:58;;;;;;;13.98;11.20;;;;;;;9.70;97.88;99430.47;6289093;22;20544;-93
2022/04/06 01:59:30;;;;;;;13.45;10.60;;;;;;;9.50;98.53;99395.47;6318797;22;20096;-94
2022/04/06 02:02:35;;;;;;;14.32;11.55;;;;;;;9.62;98.50;99400.97;6314175;22;20027;-94
2022/04/06 02:05:12;;;;;;;14.23;11.05;;;;;;;9.50;98.76;99379.59;6316863;22;20019;-92
2022/04/06 02:07:59;;;;;;;15.95;12.13;;;;;;;9.57;98.42;99393.31;6314185;22;20072;-93
2022/04/06 02:10:33;;;;;;;16.00;11.88;;;;;;;9.93;98.06;99445.81;6325086;22;20075;-91
2022/04/06 02:13:22;;;;;;;15.07;11.52;;;;;;;9.60;98.12;99376.44;6331806;22;20007;-90
2022/04/06 02:15:55;;;;;;;14.75;11.55;;;;;;;9.57;98.07;99376.63;6308575;22;20075;-88
2022/04/06 02:18:30;;;;;;;15.75;11.73;;;;;;;9.56;98.35;99377.56;6322992;22;20318;-92
2022/04/06 02:21:25;;;;;;;16.08;11.35;;;;;;;9.80;97.88;99397.25;6288767;22;20019;-87
2022/04/06 02:24:23;;;;;;;16.35;11.13;;;;;;;9.84;97.52;99396.97;6313686;22;20019;-92
2022/04/06 02:26:55;;;;;;;13.55;10.23;;;;;;;9.90;97.24;99411.63;6303190;22;20422;-92
2022/04/06 02:29:30;;;;;;;15.65;11.25;;;;;;;9.69;97.35;99376.72;6311345;22;20127;-92
2022/04/06 02:32:09;;;;;;;13.95;10.43;;;;;;;9.84;97.41;99401.41;6313714;22;20445;-94
2022/04/06 02:34:52;;;;;;;13.30;10.38;;;;;;;9.59;97.72;99361.53;6311059;22;20019;-94
2022/04/06 02:37:33;;;;;;;15.65;10.32;;;;;;;9.63;97.39;99370.94;6311101;22;20441;-94
2022/04/06 02:40:06;;;;;;;14.15;11.05;;;;;;;9.72;97.87;99389.78;6285245;22;20015;-93
2022/04/06 02:42:37;;;;;;;15.93;11.40;;;;;;;9.78;97.71;99396.47;6310694;22;20098;-91
2022/04/06 02:45:05;;;;;;;14.68;10.98;;;;;;;9.85;98.00;99411.03;6307937;22;20027;-91
2022/04/06 02:47:36;;;;;;;13.88;10.85;;;;;;;9.61;97.62;99368.41;6309062;22;20066;-94
2022/04/06 02:50:07;;;;;;;13.45;10.68;;;;;;;9.63;97.39;99363.03;6306704;22;20019;-91
2022/04/06 02:52:38;;;;;;;14.43;10.63;;;;;;;9.78;97.79;99404.41;6256316;22;20015;-94
2022/04/06 02:55:20;;;;;;;14.00;10.65;;;;;;;9.94;97.96;99425.50;6300698;22;20181;-91
2022/04/06 02:57:52;;;;;;;14.65;11.65;;;;;;;9.79;97.69;99406.09;6289759;22;20021;-91
2022/04/06 03:00:22;;;;;;;16.40;11.35;;;;;;;9.69;97.42;99387.31;6310944;22;20086;-93
2022/04/06 03:02:52;;;;;;;13.38;10.95;;;;;;;9.70;97.60;99393.44;6311072;22;20019;-90
2022/04/06 03:05:28;;;;;;;13.73;10.93;;;;;;;9.79;97.12;99414.03;6281719;22;20034;-92
2022/04/06 03:07:56;;;;;;;16.23;11.50;;;;;;;9.94;97.38;99438.72;6283266;22;20025;-93
2022/04/06 03:10:24;;;;;;;14.07;11.30;;;;;;;9.63;96.90;99379.72;6306946;22;20449;-92
2022/04/06 03:12:53;;;;;;;14.68;11.65;;;;;;;9.84;96.48;99409.34;6281447;22;20043;-92
2022/04/06 03:15:26;;;;;;;15.85;10.80;;;;;;;9.85;96.29;99416.34;6317203;22;20034;-92
2022/04/06 03:18:13;;;;;;;14.05;11.27;;;;;;;9.89;96.26;99417.88;6320491;22;20094;-91
2022/04/06 03:20:46;;;;;;;16.15;11.32;;;;;;;9.73;95.53;99382.69;6296054;22;20050;-92
2022/04/06 03:23:17;;;;;;;14.35;11.35;;;;;;;10.03;95.41;99425.81;6314632;22;20029;-93
2022/04/06 03:25:52;;;;;;;15.30;12.10;;;;;;;9.74;95.68;99389.69;6316755;22;20023;-91
2022/04/06 03:28:20;;;;;;;15.50;11.57;;;;;;;9.54;95.92;99360.94;6322805;22;20082;-92
2022/04/06 03:31:07;;;;;;;13.50;10.60;;;;;;;9.92;96.06;99422.09;6326149;22;20026;-94
2022/04/06 03:33:48;;;;;;;15.50;11.55;;;;;;;9.56;95.79;99370.47;6311019;22;20039;-93
2022/04/06 03:36:20;;;;;;;14.60;11.77;;;;;;;9.68;96.00;99382.13;6307725;22;20019;-93
2022/04/06 03:38:52;;;;;;;13.90;10.60;;;;;;;9.66;95.97;99384.84;6309025;22;20439;-91
2022/04/06 03:41:26;;;;;;;17.05;11.38;;;;;;;9.58;96.24;99379.19;6294487;22;20019;-95
2022/04/06 03:44:00;;;;;;;14.27;10.55;;;;;;;9.72;94.64;99391.56;6258080;22;20419;-94
2022/04/06 03:46:36;;;;;;;15.05;10.30;;;;;;;9.40;94.04;99353.81;6310226;22;20023;-94
2022/04/06 03:49:11;;;;;;;13.32;10.02;;;;;;;9.49;94.42;99375.25;6309409;22;20027;-94
2022/04/06 03:52:03;;;;;;;15.00;9.52;;;;;;;9.40;92.95;99349.41;6310123;22;20051;-94
2022/04/06 03:54:30;;;;;;;13.30;9.23;;;;;;;9.48;92.20;99368.28;6312643;22;20019;-94
2022/04/06 03:57:04;;;;;;;12.82;7.88;;;;;;;9.79;90.73;99422.81;6311939;22;20019;-92
2022/04/06 03:59:35;;;;;;;13.30;8.35;;;;;;;9.66;88.66;99386.63;6309055;22;20058;-95
2022/04/06 04:02:04;;;;;;;8.98;6.75;;;;;;;9.73;84.26;99390.63;6312705;22;20441;-95
2022/04/06 04:04:36;;;;;;;11.52;6.50;;;;;;;9.96;82.07;99429.75;6285359;22;20011;-94
2022/04/06 04:07:31;;;;;;;11.10;5.50;;;;;;;9.63;77.88;99365.66;6311971;22;20050;-92
2022/04/06 04:10:09;;;;;;;8.97;5.40;;;;;;;9.79;77.24;99387.59;6286830;22;20021;-91
2022/04/06 04:12:39;;;;;;;10.15;5.25;;;;;;;9.60;77.40;99360.59;6310640;22;20456;-94
2022/04/06 04:15:09;;;;;;;7.22;3.97;;;;;;;9.70;71.05;99364.38;6286574;22;20024;-96
2022/04/06 04:17:43;;;;;;;6.13;3.45;;;;;;;9.72;69.63;99368.63;6315868;22;20030;-92
2022/04/06 04:20:13;;;;;;;6.18;3.58;;;;;;;9.92;69.42;99403.56;6312613;22;20019;-94
2022/04/06 04:22:43;;;;;;;6.10;3.92;;;;;;;9.89;67.91;99382.63;6311976;22;20018;-90
2022/04/06 04:25:10;;;;;;;7.53;3.70;;;;;;;9.96;66.48;99379.50;6314014;22;20042;-91
2022/04/06 04:27:40;;;;;;;7.63;3.67;;;;;;;10.02;67.08;99405.59;6287401;22;20023;-93
2022/04/06 04:30:08;;;;;;;7.80;3.95;;;;;;;9.78;67.55;99370.03;6265729;22;20045;-91
2022/04/06 04:32:39;;;;;;;9.43;3.78;;;;;;;10.03;66.86;99407.31;6290007;22;20019;-93
2022/04/06 04:35:15;;;;;;;8.23;3.63;;;;;;;9.70;66.97;99359.94;6319593;22;20019;-95
2022/04/06 04:37:43;;;;;;;10.02;3.67;;;;;;;9.77;65.71;99368.34;6294820;22;20030;-91
2022/04/06 04:40:16;;;;;;;9.52;3.60;;;;;;;9.75;66.28;99371.09;6302355;22;20003;-89
2022/04/06 04:42:47;;;;;;;9.80;3.63;;;;;;;9.69;66.11;99365.31;6324082;22;20018;-93
2022/04/06 04:45:35;;;;;;;9.55;3.30;;;;;;;9.80;65.04;99384.88;6285899;22;20019;-93
2022/04/06 04:48:08;;;;;;;8.73;3.35;;;;;;;9.93;64.54;99397.34;6318940;22;20074;-96
2022/04/06 04:51:03;;;;;;;6.85;3.00;;;;;;;9.94;64.52;99394.63;6317713;22;20046;-95
2022/04/06 04:54:06;;;;;;;5.80;2.90;;;;;;;9.91;64.05;99386.88;6290976;22;20015;-96
2022/04/06 04:56:36;;;;;;;7.65;3.63;;;;;;;9.73;64.58;99386.19;6314646;22;20019;-92
2022/04/06 04:59:07;;;;;;;8.30;3.60;;;;;;;9.79;65.05;99398.19;6290764;22;20063;-92
2022/04/06 05:01:37;;;;;;;7.63;3.10;;;;;;;9.75;65.01;99383.47;6293714;22;20019;-90
2022/04/06 05:04:26;;;;;;;5.90;2.90;;;;;;;9.62;65.08;99364.81;6317576;22;20023;-94
2022/04/06 05:07:10;;;;;;;8.80;3.30;;;;;;;9.88;65.21;99416.16;6310172;22;20023;-92
2022/04/06 05:09:39;;;;;;;9.10;3.40;;;;;;;9.63;65.24;99379.72;6311965;22;20027;-92
2022/04/06 05:12:12;;;;;;;7.15;3.08;;;;;;;9.60;65.76;99382.56;6312446;22;20015;-92
2022/04/06 05:14:41;;;;;;;6.97;3.33;;;;;;;9.88;65.40;99405.59;6313885;22;20027;-88
2022/04/06 05:17:08;;;;;;;9.48;3.00;;;;;;;9.61;65.11;99363.09;6327137;22;20074;-91
2022/04/06 05:19:59;;;;;;;9.45;3.00;;;;;;;9.93;65.47;99432.59;6328590;22;20348;-90
2022/04/06 05:22:37;;;;;;;7.72;3.03;;;;;;;9.89;66.32;99436.38;6329747;22;20070;-89
2022/04/06 05:25:07;;;;;;;7.85;3.15;;;;;;;9.85;66.71;99432.19;6330423;22;20026;-90
2022/04/06 05:28:08;;;;;;;12.13;3.50;;;;;;;9.57;66.60;99377.47;6330532;22;20017;-91
2022/04/06 05:30:53;;;;;;;10.48;3.83;;;;;;;10.04;66.31;99424.03;6327587;22;20019;-88
2022/04/06 05:33:26;;;;;;;8.98;3.38;;;;;;;9.66;66.55;99365.50;6301767;22;20034;-89
2022/04/06 05:36:17;;;;;;;9.23;3.88;;;;;;;9.79;67.60;99387.59;6329945;22;20094;-92
2022/04/06 05:38:44;;;;;;;9.52;4.00;;;;;;;10.01;67.79;99419.75;6299668;22;20023;-94
2022/04/06 05:41:20;;;;;;;8.60;4.53;;;;;;;9.68;68.24;99358.31;6317926;22;20046;-90
2022/04/06 05:43:56;;;;;;;7.55;3.83;;;;;;;9.69;68.24;99355.59;6313849;22;20031;-94
2022/04/06 05:46:25;;;;;;;10.55;4.30;;;;;;;9.93;68.17;99390.25;6310177;22;20053;-93
2022/04/06 05:49:06;;;;;;;10.27;4.22;;;;;;;10.12;68.35;99417.31;6314887;22;20045;-93
2022/04/06 05:51:34;;;;;;;9.35;3.88;;;;;;;10.14;69.01;99415.44;6294591;22;20031;-92
2022/04/06 05:54:16;;;;;;;10.35;4.20;;;;;;;10.16;68.45;99413.53;6305974;22;20026;-92
2022/04/06 05:56:46;;;;;;;10.85;4.53;;;;;;;10.25;68.19;99424.53;6314954;22;20026;-90
2022/04/06 05:59:54;;;;;;;8.00;4.22;;;;;;;10.30;68.26;99425.97;6310593;22;20047;-92
2022/04/06 06:02:25;;;;;;;8.93;3.55;;;;;;;10.16;68.36;99395.03;6287019;22;20049;-95
2022/04/06 06:04:57;;;;;;;9.93;4.35;;;;;;;10.05;67.84;99363.09;6286722;22;20019;-88
2022/04/06 06:07:24;;;;;;;10.43;4.47;;;;;;;10.31;67.68;99400.34;6316294;22;20022;-92
2022/04/06 06:09:53;;;;;;;8.02;3.65;;;;;;;10.09;66.92;99364.59;6313070;22;20015;-88
2022/04/06 06:12:24;;;;;;;10.88;4.70;;;;;;;10.33;67.05;99387.88;6287361;22;20049;-94
2022/04/06 06:14:56;;;;;;;11.13;3.95;;;;;;;10.42;66.56;99401.38;6313593;22;20016;-89
2022/04/06 06:17:24;;;;;;;10.10;4.15;;;;;;;10.53;66.11;99411.31;6312414;22;20019;-94
2022/04/06 06:20:20;;;;;;;8.38;4.55;;;;;;;10.52;66.32;99381.34;6288432;22;20012;-95
2022/04/06 06:23:03;;;;;;;9.82;4.10;;;;;;;10.67;66.14;99402.50;6313500;22;20023;-94
2022/04/06 06:25:37;;;;;;;9.57;4.10;;;;;;;10.53;66.03;99379.56;6316255;22;20019;-93
2022/04/06 06:28:07;;;;;;;8.73;4.07;;;;;;;10.58;65.92;99385.41;6315309;22;20023;-94
2022/04/06 06:30:43;;;;;;;11.45;4.53;;;;;;;10.67;64.86;99378.69;6292475;22;20019;-91
2022/04/06 06:33:14;;;;;;;10.88;4.22;;;;;;;10.79;64.13;99391.13;6321613;22;20027;-90
2022/04/06 06:35:48;;;;;;;10.02;4.38;;;;;;;10.65;64.44;99343.50;6324000;22;20023;-91
2022/04/06 06:38:20;;;;;;;11.63;4.45;;;;;;;10.90;64.36;99381.56;6316115;22;20124;-90
2022/04/06 06:41:13;;;;;;;11.90;4.55;;;;;;;10.93;64.85;99377.00;6321743;22;20015;-90
2022/04/06 06:43:50;;;;;;;9.43;4.40;;;;;;;11.22;63.62;99386.56;6324209;22;20017;-89
2022/04/06 06:46:29;;;;;;;13.45;4.82;;;;;;;11.05;63.09;99347.06;6296042;22;20019;-93
2022/04/06 06:49:03;;;;;;;10.85;4.20;;;;;;;11.39;62.33;99396.91;6314692;22;20045;-92
2022/04/06 06:51:39;;;;;;;8.32;3.75;;;;;;;11.19;62.30;99357.59;6319532;22;20045;-93
2022/04/06 06:54:11;;;;;;;10.27;3.75;;;;;;;11.16;60.43;99347.22;6315005;22;20015;-92
2022/04/06 06:56:40;;;;;;;9.18;4.00;;;;;;;11.19;60.53;99347.00;6311382;22;20030;-94
2022/04/06 06:59:08;;;;;;;;;;;;;;;11.57;60.43;99410.75;6319818;22;20078;-92
2022/04/06 07:01:37;;;;;;;7.40;3.83;;;;;;;11.33;59.57;99360.22;6317111;22;19929;-90
2022/04/06 07:04:17;;;;;;;9.02;3.55;;;;;;;11.18;59.74;99363.84;6328234;22;20003;-92
2022/04/06 07:06:45;;;;;;;11.68;4.03;;;;;;;11.27;59.89;99376.50;6328909;22;20057;-89
2022/04/06 07:09:59;;;;;;;12.32;4.07;;;;;;;11.02;59.30;99345.47;6320163;22;20027;-87
2022/04/06 07:12:43;;;;;;;11.02;3.78;;;;;;;11.25;60.18;99373.13;6322050;22;20117;-94
2022/04/06 07:15:14;;;;;;;10.70;3.78;;;;;;;11.47;58.46;99385.81;6286188;22;20026;-94
2022/04/06 07:17:58;;;;;;;10.35;3.42;;;;;;;11.15;58.61;99333.13;6318911;22;20119;-91
2022/04/06 07:20:50;;;;;;;9.18;3.40;;;;;;;11.82;57.29;99404.66;6326162;22;20007;-91
2022/04/06 07:23:37;;;;;;;5.00;3.45;;;;;;;11.64;56.32;99324.53;6324874;22;20019;-93
2022/04/06 07:26:23;;;;;;;7.97;3.28;;;;;;;11.86;54.78;99329.22;6327178;22;20027;-93
2022/04/06 07:28:55;;;;;;;8.05;3.10;;;;;;;12.29;54.63;99383.66;6297983;22;20027;-93
2022/04/06 07:31:46;;;;;;;6.00;3.05;;;;;;;12.39;53.72;99383.88;6303219;22;20023;-95
2022/04/06 07:34:43;;;;;;;8.30;3.30;;;;;;;12.17;53.69;99328.78;6193336;23;20031;-93
2022/04/06 07:37:15;;;;;;;8.75;3.40;;;;;;;12.73;53.05;99379.69;6197276;23;20009;-91
2022/04/06 07:40:04;;;;;;;8.35;2.92;;;;;;;12.84;51.67;99386.88;6201676;23;20021;-91
2022/04/06 07:43:00;;;;;;;11.30;3.87;;;;;;;12.36;52.60;99351.38;6200401;23;20028;-89
2022/04/06 07:45:29;;;;;;;6.85;3.00;;;;;;;11.91;53.32;99308.56;6201573;23;20016;-93
2022/04/06 07:48:10;;;;;;;8.07;3.33;;;;;;;11.85;53.86;99311.63;6193574;23;20087;-90
2022/04/06 07:50:50;;;;;;;5.95;3.00;;;;;;;12.19;53.70;99373.81;6252816;22;20024;-89
2022/04/06 07:53:38;;;;;;;9.95;3.78;;;;;;;11.96;54.66;99369.25;6319299;22;20046;-94
2022/04/06 07:56:18;;;;;;;8.23;3.17;;;;;;;11.75;53.53;99318.50;6317604;22;20023;-91
2022/04/06 07:58:57;;;;;;;8.52;3.15;;;;;;;11.89;53.66;99326.38;6317737;22;20026;-90
2022/04/06 08:01:32;;;;;;;7.95;3.22;;;;;;;12.02;53.80;99334.31;6316590;22;20031;-93
2022/04/06 08:04:05;;;;;;;8.02;3.13;;;;;;;11.84;53.63;99321.38;6315273;22;20049;-95
2022/04/06 08:06:39;;;;;;;9.20;3.72;;;;;;;11.99;54.67;99353.94;6313083;22;20026;-91
2022/04/06 08:09:10;;;;;;;10.73;3.83;;;;;;;11.92;53.96;99332.31;6317245;22;20618;-89
2022/04/06 08:11:47;;;;;;;8.82;3.45;;;;;;;11.95;54.47;99318.00;6308754;22;20115;-91
2022/04/06 08:14:33;;;;;;;;;;;;;;;12.56;53.91;99364.97;6309349;22;20034;-92
2022/04/06 08:17:19;;;;;;;10.90;3.67;;;;;;;12.45;52.12;99318.88;6315871;22;19935;-95
2022/04/06 08:19:51;;;;;;;7.68;3.20;;;;;;;12.75;51.58;99367.13;6313032;22;20068;-92
2022/04/06 08:22:29;;;;;;;10.07;3.45;;;;;;;12.35;51.11;99301.91;6308038;22;20027;-90
2022/04/06 08:25:02;;;;;;;7.60;2.90;;;;;;;12.49;50.62;99299.09;6310929;22;20018;-92
2022/04/06 08:27:51;;;;;;;8.73;3.33;;;;;;;12.59;50.02;99329.38;6312206;22;20448;-90
2022/04/06 08:30:22;;;;;;;8.95;2.88;;;;;;;12.26;50.33;99309.59;6340352;22;20022;-90
2022/04/06 08:32:58;;;;;;;7.78;2.92;;;;;;;12.53;50.34;99328.00;6339763;22;20015;-88
2022/04/06 08:39:09;;;;;;;8.30;3.53;;;;;;;12.23;50.45;99322.22;6337087;22;20018;-93
2022/04/06 08:41:52;;;;;;;8.98;3.47;;;;;;;11.93;51.53;99311.94;6346847;22;20014;-88
2022/04/06 08:44:24;;;;;;;7.82;3.97;;;;;;;12.03;51.56;99326.25;6344200;22;20015;-93
2022/04/06 08:46:58;;;;;;;8.25;4.00;;;;;;;12.31;52.36;99380.91;6345059;22;20029;-88
2022/04/06 08:50:03;;;;;;;6.43;3.60;;;;;;;12.37;52.32;99369.88;6359124;22;20401;-88
2022/04/06 08:52:40;;;;;;;8.68;3.38;;;;;;;12.10;52.22;99287.75;6353638;22;20414;-94
2022/04/06 08:55:26;;;;;;;9.45;3.40;;;;;;;12.56;51.67;99345.53;6333420;22;20318;-92
2022/04/06 08:57:59;;;;;;;9.68;3.35;;;;;;;12.40;51.58;99313.06;6357364;22;20022;-90
2022/04/06 09:00:31;;;;;;;6.25;3.42;;;;;;;12.18;51.35;99295.13;6359077;22;20018;-93
2022/04/06 09:03:01;;;;;;;7.70;3.75;;;;;;;12.18;51.02;99285.38;6355766;22;19995;-94
2022/04/06 09:05:44;;;;;;;11.82;3.60;;;;;;;12.46;51.33;99321.41;6356883;22;20054;-91
2022/04/06 09:08:19;;;;;;;7.50;3.80;;;;;;;12.36;50.75;99311.56;6359280;22;20014;-90
2022/04/06 09:10:49;;;;;;;8.25;3.33;;;;;;;12.34;51.35;99318.78;6354234;22;20019;-92
2022/04/06 09:13:26;;;;;;;4.93;3.20;;;;;;;12.31;51.56;99303.91;6349854;22;20015;-89
2022/04/06 09:16:15;;;;;;;;;;;;;;;;;;;;;
2022/04/06 09:19:06;;;;;;;10.45;3.78;;;;;;;12.48;51.35;99273.50;6353492;22;20015;-91
2022/04/06 09:21:40;;;;;;;8.95;4.07;;;;;;;13.00;51.99;99347.59;6354027;22;20014;-91
2022/04/06 09:24:35;;;;;;;8.05;3.80;;;;;;;12.95;50.65;99270.88;6356842;22;20014;-94
2022/04/06 09:27:07;;;;;;;9.43;3.70;;;;;;;13.50;49.46;99311.09;6344470;22;20019;-92
2022/04/06 09:29:42;;;;;;;8.93;3.92;;;;;;;13.80;48.67;99338.00;6346790;22;20010;-92
2022/04/06 09:32:20;;;;;;;9.10;3.35;;;;;;;13.39;49.29;99314.56;6357182;22;20078;-91
2022/04/06 09:35:42;;;;;;;7.93;3.70;;;;;;;12.85;50.34;99288.47;6359739;22;20019;-89
2022/04/06 09:38:23;;;;;;;7.30;3.40;;;;;;;12.85;50.19;99275.19;6356687;22;20045;-88
2022/04/06 09:41:14;;;;;;;6.85;3.40;;;;;;;13.72;47.65;99297.84;6350862;22;19999;-92
2022/04/06 09:43:47;;;;;;;6.45;3.20;;;;;;;13.91;46.30;99275.97;6352623;22;20106;-95
2022/04/06 09:49:24;;;;;;;8.07;3.13;;;;;;;13.59;45.65;99302.41;6355063;22;20030;-88
2022/04/06 09:51:57;;;;;;;7.10;2.58;;;;;;;13.18;45.78;99263.88;6360084;22;20078;-89
2022/04/06 09:54:45;;;;;;;;;;;;;;;;;;;;;
2022/04/06 09:57:42;;;;;;;8.40;3.38;;;;;;;13.22;46.84;99312.34;6351991;22;20019;-92
2022/04/06 10:00:31;;;;;;;;;;;;;;;;;;;;;
2022/04/06 10:03:41;;;;;;;;;;;;;;;;;;;;;
2022/04/06 10:06:09;;;;;;;6.47;2.95;;;;;;;12.97;47.16;99249.50;6325361;22;20019;-93
2022/04/06 10:09:04;;;;;;;11.13;3.05;;;;;;;13.18;47.00;99249.72;6348864;22;20054;-95
2022/04/06 10:11:58;;;;;;;7.85;3.30;;;;;;;13.43;46.79;99286.78;6353695;22;20026;-91
2022/04/06 10:14:50;;;;;;;6.68;3.42;;;;;;;13.09;47.82;99248.56;6351928;22;20038;-91
2022/04/06 10:17:49;;;;;;;9.93;3.50;;;;;;;12.98;48.29;99233.44;6352378;22;20011;-95
2022/04/06 10:21:00;;;;;;;;;;;;;;;;;;;;;
2022/04/06 10:27:44;;;;;;;7.30;3.42;;;;;;;13.83;48.10;99289.88;6303720;22;20050;-93
2022/04/06 10:30:19;;;;;;;;;;;;;;;13.88;48.34;99289.50;6318831;22;20023;-93
2022/04/06 10:33:39;;;;;;;;;;;;;;;;;;;;;
2022/04/06 10:36:26;;;;;;;7.53;4.50;;;;;;;13.57;48.84;99249.31;6313743;22;20069;-94
2022/04/06 10:39:38;;;;;;;9.50;4.70;;;;;;;13.35;49.42;99220.06;6318662;22;20053;-93
2022/04/06 10:42:48;;;;;;;9.38;4.55;;;;;;;13.26;50.33;99226.06;6292088;22;20092;-93
2022/04/06 10:46:38;;;;;;;11.75;3.90;;;;;;;13.23;50.64;99191.72;6323516;22;20438;-93
2022/04/06 10:49:23;;;;;;;9.65;4.45;;;;;;;13.94;49.75;99265.09;6293703;22;20027;-91
2022/04/06 10:52:26;;;;;;;7.32;4.20;;;;;;;15.30;45.73;99186.34;6317137;22;20023;-90
2022/04/06 10:55:37;;;;;;;;;;;;;;;;;;;;;
2022/04/06 10:59:09;;;;;;;9.77;4.25;;;;;;;16.92;40.47;99191.50;6323807;22;20025;-92
2022/04/06 11:02:39;;;;;;;9.95;4.70;;;;;;;16.03;42.64;99222.69;6199354;23;20084;-93
2022/04/06 11:05:53;;;;;;;7.25;4.00;;;;;;;17.38;41.65;99240.75;6290481;22;20057;-93
2022/04/06 11:13:25;;;;;;;11.10;5.05;;;;;;;16.02;43.44;99225.50;6316251;22;20018;-94
2022/04/06 11:15:56;;;;;;;8.30;4.97;;;;;;;15.77;43.61;99168.91;6290326;22;20059;-91
2022/04/06 11:18:56;;;;;;;8.98;4.60;;;;;;;15.34;45.36;99169.09;6317833;22;20057;-90
2022/04/06 11:22:08;;;;;;;8.45;5.10;;;;;;;15.63;44.77;99166.59;6301139;22;20070;-94
2022/04/06 11:27:54;;;;;;;8.05;4.43;;;;;;;16.34;43.47;99231.50;6296144;22;20295;-93
2022/04/06 11:30:43;;;;;;;10.65;4.90;;;;;;;15.79;45.08;99228.34;6257279;22;20047;31
2022/04/06 11:33:42;;;;;;;8.98;4.57;;;;;;;16.41;43.43;99219.28;6272392;22;20027;-91
2022/04/06 11:36:41;;;;;;;9.93;4.80;;;;;;;17.66;40.48;99174.75;6295632;22;20027;-93
2022/04/06 11:39:14;;;;;;;9.98;3.88;;;;;;;18.30;38.97;99190.81;6319702;22;20073;-95
2022/04/06 11:41:53;;;;;;;11.30;3.85;;;;;;;18.36;37.72;99162.56;6317622;22;20042;-93
2022/04/06 11:44:41;;;;;;;7.75;4.07;;;;;;;19.40;36.36;99218.19;6314859;22;20067;-92
2022/04/06 11:47:09;;;;;;;5.65;3.40;;;;;;;18.67;36.89;99209.53;6319497;22;20015;-94
2022/04/06 11:49:45;;;;;;;7.57;3.78;;;;;;;17.24;39.18;99163.59;6296803;22;20007;-94
2022/04/06 11:52:27;;;;;;;9.93;3.75;;;;;;;16.43;40.94;99153.19;6281034;22;20023;-95
2022/04/06 11:55:41;;;;;;;8.10;3.95;;;;;;;16.71;40.82;99217.53;6307984;22;20011;31
2022/04/06 12:01:04;;;;;;;6.43;3.60;;;;;;;17.84;38.35;99163.13;6317304;22;20029;-91
2022/04/06 12:03:37;;;;;;;8.18;3.60;;;;;;;17.80;37.39;99169.78;6315699;22;20061;-91
2022/04/06 12:09:34;;;;;;;9.18;3.50;;;;;;;16.49;40.27;99133.09;6280038;22;20007;-90
2022/04/06 12:12:18;;;;;;;6.30;3.72;;;;;;;16.72;40.85;99201.34;6262889;22;20065;-93
2022/04/06 12:15:18;;;;;;;;;;;;;;;16.82;41.60;99207.56;6272849;22;20024;-93
2022/04/06 12:21:17;;;;;;;8.13;3.78;;;;;;;18.25;36.07;99139.53;6286380;22;20071;-89
2022/04/06 12:23:47;;;;;;;6.25;3.03;;;;;;;17.29;37.92;99145.28;6292987;22;20059;-94
2022/04/06 12:26:50;;;;;;;;;;;;;;;;;;;;;
2022/04/06 12:30:10;;;;;;;6.43;3.30;;;;;;;16.24;40.31;99203.06;6318936;22;20027;-91
2022/04/06 12:32:52;;;;;;;6.97;3.00;;;;;;;15.63;41.12;99118.56;6318467;22;20050;-91
2022/04/06 12:35:34;;;;;;;7.72;2.47;;;;;;;16.27;39.62;99162.72;6323575;22;20059;-93
2022/04/06 12:39:01;;;;;;;4.43;2.03;;;;;;;15.90;38.78;99106.44;6298968;22;20027;-91
2022/04/06 12:42:05;;;;;;;3.70;1.90;;;;;;;15.99;39.13;99129.66;6304678;22;20003;-92
2022/04/06 12:45:49;;;;;;;4.37;1.57;;;;;;;16.81;37.94;99184.47;4761431;27;10342548;-92
2022/04/06 12:48:35;;;;;;;6.70;2.05;;;;;;;16.47;37.67;99113.69;5110493;28;20489;-93
2022/04/06 12:51:29;;;;;;;7.30;1.83;;;;;;;17.13;35.94;99127.16;5113995;28;20043;-94
2022/04/06 12:54:09;;;;;;;7.07;1.60;;;;;;;16.67;36.59;99117.22;5112009;28;20082;-92
2022/04/06 12:57:23;;;;;;;;;;;;;;;;;;;;;
2022/04/06 13:00:27;;;;;;;4.82;1.67;;;;;;;18.75;33.82;99152.41;5107832;28;21168;-94
2022/04/06 13:02:57;;;;;;;5.20;1.42;;;;;;;18.79;32.97;99106.38;5104964;28;20055;-94
2022/04/06 13:06:08;;;;;;;3.92;1.42;;;;;;;18.58;33.05;99122.78;5113543;28;20491;-92
2022/04/06 13:08:55;;;;;;;4.28;1.65;;;;;;;19.27;32.71;99174.81;5111029;28;20066;-91
2022/04/06 13:12:02;;;;;;;3.53;1.33;;;;;;;18.37;32.88;99086.53;5114074;28;20028;-95
2022/04/06 13:14:42;;;;;;;6.00;1.58;;;;;;;18.27;33.69;99137.50;5116829;28;20054;-85
2022/04/06 13:17:48;;;;;;;5.35;1.50;;;;;;;18.41;33.42;99102.16;5107330;28;20036;-92
2022/04/06 13:20:57;;;;;;;5.22;1.50;;;;;;;19.33;32.09;99162.63;5113075;28;20109;-93
2022/04/06 13:29:28;;;;;;;4.72;1.52;;;;;;;18.52;33.23;99141.31;5510890;23;20049;-93
2022/04/06 13:38:22;;;;;;;5.40;1.50;;;;;;;19.99;30.82;99114.47;6061138;23;21250;31
2022/04/06 13:41:43;;;;;;;;;;;;;;;;;;;;;
2022/04/06 13:47:23;;;;;;;4.85;1.50;;;;;;;18.36;33.56;99108.97;1613296;23;20364;-92